createdAt,value
2018-07-15T00:02:21.925Z,15.30
2018-07-15T00:04:56.161Z,15.20
2018-07-15T00:07:30.261Z,15.20
2018-07-15T00:10:04.573Z,15.20
2018-07-15T00:12:38.739Z,15.10
2018-07-15T00:15:13.860Z,15.10
2018-07-15T00:17:47.559Z,15.10
2018-07-15T00:20:21.903Z,15.00
2018-07-15T00:22:56.415Z,15.00
2018-07-15T00:25:30.227Z,15.00
2018-07-15T00:28:04.367Z,15.00
2018-07-15T00:30:38.157Z,14.90
2018-07-15T00:33:12.302Z,14.90
2018-07-15T00:35:46.520Z,14.90
2018-07-15T00:38:22.802Z,14.80
2018-07-15T00:40:56.939Z,14.80
2018-07-15T00:43:30.703Z,14.80
2018-07-15T00:46:04.661Z,14.80
2018-07-15T00:48:38.374Z,14.80
2018-07-15T00:51:12.361Z,14.70
2018-07-15T00:53:46.265Z,14.70
2018-07-15T00:56:21.024Z,14.70
2018-07-15T00:58:54.868Z,14.60
2018-07-15T01:01:28.614Z,14.60
2018-07-15T01:04:02.326Z,14.60
2018-07-15T01:06:36.712Z,14.50
2018-07-15T01:09:12.509Z,14.50
2018-07-15T01:11:46.327Z,14.40
2018-07-15T01:14:20.475Z,14.40
2018-07-15T01:16:55.532Z,14.40
2018-07-15T01:19:29.840Z,14.40
2018-07-15T01:22:04.045Z,14.40
2018-07-15T01:24:37.764Z,14.40
2018-07-15T01:27:11.598Z,14.30
2018-07-15T01:29:45.497Z,14.30
2018-07-15T01:32:19.322Z,14.20
2018-07-15T01:34:53.146Z,14.20
2018-07-15T01:37:27.054Z,14.20
2018-07-15T01:40:00.805Z,14.20
2018-07-15T01:42:34.710Z,14.10
2018-07-15T01:45:08.745Z,14.10
2018-07-15T01:47:42.656Z,14.10
2018-07-15T01:50:16.453Z,14.10
2018-07-15T01:52:50.947Z,14.00
2018-07-15T01:55:25.172Z,14.00
2018-07-15T01:57:59.444Z,14.00
2018-07-15T02:00:33.701Z,14.00
2018-07-15T02:03:07.824Z,14.00
2018-07-15T02:05:42.038Z,14.00
2018-07-15T02:08:16.521Z,14.00
2018-07-15T02:10:50.785Z,13.90
2018-07-15T02:13:28.055Z,13.90
2018-07-15T02:16:03.752Z,13.90
2018-07-15T02:18:37.814Z,13.90
2018-07-15T02:21:11.465Z,13.90
2018-07-15T02:23:45.305Z,13.80
2018-07-15T02:26:19.034Z,13.80
2018-07-15T02:28:52.873Z,13.80
2018-07-15T02:31:26.771Z,13.80
2018-07-15T02:34:01.022Z,13.80
2018-07-15T02:36:36.113Z,13.70
2018-07-15T02:39:12.060Z,13.70
2018-07-15T02:41:45.795Z,13.60
2018-07-15T02:44:20.915Z,13.60
2018-07-15T02:46:58.907Z,13.60
2018-07-15T02:49:32.724Z,13.60
2018-07-15T02:52:06.549Z,13.60
2018-07-15T02:54:40.526Z,13.50
2018-07-15T02:57:14.262Z,13.50
2018-07-15T02:59:48.018Z,13.40
2018-07-15T03:02:21.827Z,13.40
2018-07-15T03:04:55.549Z,13.40
2018-07-15T03:07:29.376Z,13.40
2018-07-15T03:10:05.049Z,13.40
2018-07-15T03:12:39.153Z,13.40
2018-07-15T03:15:12.944Z,13.40
2018-07-15T03:17:48.405Z,13.40
2018-07-15T03:20:23.624Z,13.40
2018-07-15T03:22:57.734Z,13.40
2018-07-15T03:25:32.369Z,13.40
2018-07-15T03:28:06.247Z,13.40
2018-07-15T03:30:40.024Z,13.40
2018-07-15T03:33:13.800Z,13.40
2018-07-15T03:35:47.541Z,13.40
2018-07-15T03:38:21.515Z,13.40
2018-07-15T03:40:55.293Z,13.40
2018-07-15T03:43:29.120Z,13.40
2018-07-15T03:46:02.838Z,13.40
2018-07-15T03:48:36.872Z,13.40
2018-07-15T03:51:10.745Z,13.40
2018-07-15T03:53:44.583Z,13.40
2018-07-15T03:56:20.814Z,13.50
2018-07-15T03:58:54.581Z,13.50
2018-07-15T04:01:28.271Z,13.40
2018-07-15T04:04:01.976Z,13.50
2018-07-15T04:06:35.772Z,13.50
2018-07-15T04:09:10.028Z,13.50
2018-07-15T04:11:43.792Z,13.50
2018-07-15T04:14:17.534Z,13.60
2018-07-15T04:16:52.767Z,13.60
2018-07-15T04:19:26.737Z,13.60
2018-07-15T04:22:00.678Z,13.60
2018-07-15T04:24:34.304Z,13.70
2018-07-15T04:27:08.107Z,13.70
2018-07-15T04:29:41.882Z,13.70
2018-07-15T04:32:15.602Z,13.80
2018-07-15T04:34:49.329Z,13.80
2018-07-15T04:37:23.066Z,13.80
2018-07-15T04:39:56.952Z,13.80
2018-07-15T04:42:30.684Z,13.90
2018-07-15T04:45:04.435Z,13.90
2018-07-15T04:47:38.158Z,14.00
2018-07-15T04:50:12.030Z,14.00
2018-07-15T04:52:45.972Z,14.10
2018-07-15T04:55:19.807Z,14.10
2018-07-15T04:57:53.532Z,14.20
2018-07-15T05:00:27.350Z,14.20
2018-07-15T05:03:01.108Z,14.30
2018-07-15T05:05:34.874Z,14.40
2018-07-15T05:08:08.652Z,14.40
2018-07-15T05:10:42.311Z,14.50
2018-07-15T05:13:15.947Z,14.60
2018-07-15T05:15:49.684Z,14.70
2018-07-15T05:18:23.456Z,14.70
2018-07-15T05:20:57.350Z,14.80
2018-07-15T05:23:31.097Z,14.90
2018-07-15T05:26:04.934Z,15.00
2018-07-15T05:28:38.613Z,15.00
2018-07-15T05:31:12.485Z,15.10
2018-07-15T05:33:46.299Z,15.20
2018-07-15T05:36:20.081Z,15.20
2018-07-15T05:38:55.125Z,15.30
2018-07-15T05:41:28.946Z,15.40
2018-07-15T05:44:02.721Z,15.40
2018-07-15T05:46:36.341Z,15.50
2018-07-15T05:49:10.095Z,15.50
2018-07-15T05:51:43.823Z,15.60
2018-07-15T05:54:17.858Z,15.60
2018-07-15T05:56:51.810Z,15.80
2018-07-15T05:59:25.589Z,15.80
2018-07-15T06:01:59.479Z,15.90
2018-07-15T06:04:33.417Z,15.90
2018-07-15T06:07:07.199Z,16.00
2018-07-15T06:09:41.041Z,16.10
2018-07-15T06:12:14.889Z,16.20
2018-07-15T06:14:49.154Z,16.20
2018-07-15T06:17:22.914Z,16.30
2018-07-15T06:19:56.752Z,16.40
2018-07-15T06:22:35.016Z,16.50
2018-07-15T06:25:09.407Z,16.50
2018-07-15T06:27:43.243Z,16.60
2018-07-15T06:30:17.050Z,16.70
2018-07-15T06:32:51.118Z,16.80
2018-07-15T06:35:25.429Z,16.90
2018-07-15T06:37:59.953Z,17.00
2018-07-15T06:40:34.119Z,17.00
2018-07-15T06:43:10.243Z,17.10
2018-07-15T06:45:44.139Z,17.20
2018-07-15T06:48:17.921Z,17.30
2018-07-15T06:50:51.761Z,17.30
2018-07-15T06:53:26.179Z,17.40
2018-07-15T06:56:00.818Z,17.50
2018-07-15T06:58:34.882Z,17.60
2018-07-15T07:01:08.589Z,17.60
2018-07-15T07:03:42.333Z,17.60
2018-07-15T07:06:16.096Z,17.70
2018-07-15T07:08:50.445Z,17.80
2018-07-15T07:11:24.289Z,17.90
2018-07-15T07:13:58.129Z,17.90
2018-07-15T07:16:32.204Z,18.00
2018-07-15T07:19:06.003Z,18.10
2018-07-15T07:21:39.696Z,18.10
2018-07-15T07:24:13.404Z,18.20
2018-07-15T07:26:47.292Z,18.30
2018-07-15T07:29:22.390Z,18.30
2018-07-15T07:31:56.088Z,18.40
2018-07-15T07:34:30.017Z,18.40
2018-07-15T07:37:04.197Z,18.50
2018-07-15T07:39:38.844Z,18.60
2018-07-15T07:42:12.722Z,18.60
2018-07-15T07:44:46.809Z,18.70
2018-07-15T07:47:20.955Z,18.80
2018-07-15T07:49:55.057Z,18.90
2018-07-15T07:52:29.192Z,19.00
2018-07-15T07:55:03.036Z,19.10
2018-07-15T07:57:38.885Z,19.20
2018-07-15T08:00:12.648Z,19.20
2018-07-15T08:02:46.445Z,19.30
2018-07-15T08:05:21.512Z,19.40
2018-07-15T08:07:55.268Z,19.50
2018-07-15T08:10:29.019Z,19.50
2018-07-15T08:13:02.750Z,19.70
2018-07-15T08:15:37.914Z,19.80
2018-07-15T08:18:11.670Z,19.90
2018-07-15T08:20:45.401Z,19.90
2018-07-15T08:23:19.434Z,19.90
2018-07-15T08:25:53.283Z,20.00
2018-07-15T08:28:27.238Z,20.00
2018-07-15T08:31:13.106Z,20.10
2018-07-15T08:33:46.808Z,20.20
2018-07-15T08:36:20.582Z,20.30
2018-07-15T08:38:54.265Z,20.40
2018-07-15T08:41:28.943Z,20.50
2018-07-15T08:44:02.623Z,20.70
2018-07-15T08:46:37.404Z,20.80
2018-07-15T08:49:11.226Z,20.80
2018-07-15T08:51:46.185Z,20.80
2018-07-15T08:54:20.153Z,20.80
2018-07-15T08:56:54.078Z,20.80
2018-07-15T08:59:27.896Z,20.70
2018-07-15T09:02:01.708Z,20.70
2018-07-15T09:04:35.874Z,20.70
2018-07-15T09:07:09.887Z,20.70
2018-07-15T09:09:43.680Z,20.70
2018-07-15T09:12:17.431Z,20.90
2018-07-15T09:14:51.392Z,21.10
2018-07-15T09:17:25.329Z,21.20
2018-07-15T09:19:59.223Z,21.40
2018-07-15T09:22:33.279Z,21.60
2018-07-15T09:25:08.033Z,21.90
2018-07-15T09:27:44.333Z,22.00
2018-07-15T09:30:18.157Z,22.10
2018-07-15T09:32:51.979Z,22.10
2018-07-15T09:35:26.021Z,22.00
2018-07-15T09:37:59.877Z,22.10
2018-07-15T09:40:33.695Z,22.10
2018-07-15T09:43:10.233Z,22.20
2018-07-15T09:45:45.731Z,22.40
2018-07-15T09:48:21.158Z,22.60
2018-07-15T09:50:58.098Z,22.50
2018-07-15T09:53:33.450Z,22.50
2018-07-15T09:56:08.495Z,22.60
2018-07-15T09:58:48.393Z,22.60
2018-07-15T10:01:23.403Z,22.80
2018-07-15T10:03:58.358Z,23.10
2018-07-15T10:06:33.144Z,23.30
2018-07-15T10:09:08.011Z,23.40
2018-07-15T10:11:42.493Z,23.40
2018-07-15T10:14:16.376Z,23.40
2018-07-15T10:16:50.336Z,23.40
2018-07-15T10:19:24.758Z,23.40
2018-07-15T10:21:59.975Z,23.40
2018-07-15T10:24:34.740Z,23.40
2018-07-15T10:27:08.596Z,23.60
2018-07-15T10:29:44.231Z,23.60
2018-07-15T10:32:18.081Z,23.60
2018-07-15T10:34:53.180Z,23.70
2018-07-15T10:37:27.764Z,23.90
2018-07-15T10:40:01.913Z,24.20
2018-07-15T10:42:35.635Z,24.30
2018-07-15T10:45:10.773Z,24.30
2018-07-15T10:47:45.024Z,24.20
2018-07-15T10:50:18.883Z,24.20
2018-07-15T10:52:52.764Z,24.20
2018-07-15T10:55:26.581Z,24.20
2018-07-15T10:58:00.379Z,24.30
2018-07-15T11:00:34.308Z,24.60
2018-07-15T11:03:08.148Z,24.80
2018-07-15T11:05:41.931Z,24.90
2018-07-15T11:08:15.746Z,24.90
2018-07-15T11:10:49.663Z,25.10
2018-07-15T11:13:23.642Z,25.30
2018-07-15T11:15:57.399Z,25.40
2018-07-15T11:18:31.317Z,25.70
2018-07-15T11:21:05.224Z,25.80
2018-07-15T11:26:12.216Z,25.80
2018-07-15T11:28:46.113Z,25.80
2018-07-15T11:31:19.978Z,25.70
2018-07-15T11:33:53.829Z,25.60
2018-07-15T11:36:27.739Z,25.40
2018-07-15T11:39:01.528Z,25.30
2018-07-15T11:41:35.192Z,25.30
2018-07-15T11:44:09.046Z,25.50
2018-07-15T11:46:42.736Z,25.80
2018-07-15T11:49:16.673Z,26.10
2018-07-15T11:51:50.535Z,26.40
2018-07-15T11:54:24.494Z,26.50
2018-07-15T11:56:58.559Z,26.70
2018-07-15T11:59:32.332Z,26.60
2018-07-15T12:02:06.074Z,26.50
2018-07-15T12:04:40.271Z,26.60
2018-07-15T12:07:14.112Z,26.90
2018-07-15T12:09:47.740Z,27.20
2018-07-15T12:12:21.410Z,27.50
2018-07-15T12:14:55.224Z,27.80
2018-07-15T12:17:28.981Z,28.00
2018-07-15T12:20:02.780Z,28.00
2018-07-15T12:22:36.457Z,27.90
2018-07-15T12:25:10.406Z,27.60
2018-07-15T12:27:44.161Z,27.30
2018-07-15T12:30:17.869Z,27.20
2018-07-15T12:32:51.560Z,27.40
2018-07-15T12:35:25.316Z,27.60
2018-07-15T12:37:59.082Z,27.70
2018-07-15T12:40:32.744Z,27.60
2018-07-15T12:43:06.712Z,27.40
2018-07-15T12:45:40.460Z,27.10
2018-07-15T12:48:14.240Z,27.20
2018-07-15T12:50:48.058Z,27.40
2018-07-15T12:53:21.746Z,27.80
2018-07-15T12:55:55.574Z,28.00
2018-07-15T12:58:29.365Z,28.00
2018-07-15T13:01:03.082Z,27.90
2018-07-15T13:03:36.944Z,27.70
2018-07-15T13:06:10.802Z,27.60
2018-07-15T13:08:44.578Z,27.30
2018-07-15T13:11:18.448Z,27.30
2018-07-15T13:13:52.376Z,27.60
2018-07-15T13:16:26.229Z,27.90
2018-07-15T13:18:59.926Z,28.00
2018-07-15T13:21:33.722Z,27.90
2018-07-15T13:24:07.536Z,27.70
2018-07-15T13:26:41.317Z,27.50
2018-07-15T13:29:15.176Z,27.40
2018-07-15T13:31:48.912Z,27.20
2018-07-15T13:34:22.713Z,27.00
2018-07-15T13:36:56.479Z,27.00
2018-07-15T13:39:30.567Z,27.30
2018-07-15T13:42:04.322Z,27.70
2018-07-15T13:44:38.076Z,28.00
2018-07-15T13:47:11.871Z,28.20
2018-07-15T13:49:45.566Z,28.60
2018-07-15T13:52:19.377Z,28.80
2018-07-15T13:54:53.178Z,28.80
2018-07-15T13:57:26.987Z,28.50
2018-07-15T14:00:01.790Z,28.30
2018-07-15T14:02:35.519Z,28.10
2018-07-15T14:05:09.617Z,28.00
2018-07-15T14:07:43.391Z,28.20
2018-07-15T14:10:17.392Z,28.50
2018-07-15T14:12:51.126Z,29.00
2018-07-15T14:15:24.970Z,29.60
2018-07-15T14:17:58.685Z,29.90
2018-07-15T14:20:32.538Z,30.20
2018-07-15T14:23:06.213Z,30.10
2018-07-15T14:25:39.985Z,29.90
2018-07-15T14:28:13.612Z,29.50
2018-07-15T14:30:47.275Z,29.00
2018-07-15T14:33:21.021Z,28.70
2018-07-15T14:35:54.706Z,28.40
2018-07-15T14:38:28.364Z,28.50
2018-07-15T14:41:03.462Z,28.80
2018-07-15T14:43:37.998Z,29.40
2018-07-15T14:46:14.858Z,29.80
2018-07-15T14:48:50.889Z,29.90
2018-07-15T14:51:26.780Z,29.70
2018-07-15T14:54:03.016Z,29.50
2018-07-15T14:56:39.811Z,29.30
2018-07-15T14:59:13.939Z,29.00
2018-07-15T15:01:49.394Z,28.70
2018-07-15T15:04:24.219Z,28.50
2018-07-15T15:09:31.582Z,29.00
2018-07-15T15:12:05.977Z,29.50
2018-07-15T15:14:41.665Z,29.80
2018-07-15T15:17:15.988Z,30.10
2018-07-15T15:19:49.710Z,30.20
2018-07-15T15:22:23.508Z,30.20
2018-07-15T15:24:57.170Z,30.10
2018-07-15T15:27:30.821Z,29.80
2018-07-15T15:30:04.627Z,29.50
2018-07-15T15:32:38.459Z,29.20
2018-07-15T15:35:12.465Z,29.20
2018-07-15T15:37:46.307Z,29.40
2018-07-15T15:40:20.089Z,29.80
2018-07-15T15:42:53.924Z,30.30
2018-07-15T15:45:27.638Z,30.60
2018-07-15T15:48:01.318Z,30.90
2018-07-15T15:50:35.135Z,31.10
2018-07-15T15:53:08.905Z,31.30
2018-07-15T15:55:42.752Z,31.40
2018-07-15T15:58:16.584Z,31.50
2018-07-15T16:00:50.391Z,31.60
2018-07-15T16:03:24.387Z,31.50
2018-07-15T16:05:58.174Z,31.50
2018-07-15T16:08:32.128Z,31.30
2018-07-15T16:11:06.097Z,30.90
2018-07-15T16:13:39.825Z,30.50
2018-07-15T16:16:13.586Z,30.10
2018-07-15T16:18:47.457Z,30.00
2018-07-15T16:21:21.710Z,30.00
2018-07-15T16:23:55.538Z,30.10
2018-07-15T16:26:29.834Z,30.30
2018-07-15T16:29:03.620Z,30.30
2018-07-15T16:31:37.414Z,30.50
2018-07-15T16:34:11.169Z,30.60
2018-07-15T16:36:45.621Z,30.80
2018-07-15T16:39:20.615Z,30.90
2018-07-15T16:41:56.616Z,31.00
2018-07-15T16:44:32.667Z,31.10
2018-07-15T16:47:07.706Z,31.30
2018-07-15T16:49:41.621Z,31.30
2018-07-15T16:52:17.212Z,31.40
2018-07-15T16:54:52.089Z,31.50
2018-07-15T16:57:25.889Z,31.60
2018-07-15T17:00:00.009Z,31.60
2018-07-15T17:02:33.655Z,31.60
2018-07-15T17:05:07.352Z,31.60
2018-07-15T17:07:41.085Z,31.50
2018-07-15T17:10:14.910Z,31.40
2018-07-15T17:12:48.607Z,31.10
2018-07-15T17:15:22.447Z,30.60
2018-07-15T17:17:56.207Z,30.40
2018-07-15T17:20:29.965Z,30.00
2018-07-15T17:23:03.669Z,29.90
2018-07-15T17:25:37.417Z,29.60
2018-07-15T17:28:11.182Z,29.40
2018-07-15T17:30:44.879Z,29.20
2018-07-15T17:33:18.655Z,28.90
2018-07-15T17:35:52.396Z,28.80
2018-07-15T17:38:26.186Z,28.60
2018-07-15T17:40:59.911Z,28.50
2018-07-15T17:43:33.750Z,28.40
2018-07-15T17:46:07.597Z,28.20
2018-07-15T17:48:41.441Z,28.10
2018-07-15T17:51:15.232Z,27.90
2018-07-15T17:53:49.118Z,27.80
2018-07-15T17:56:22.861Z,27.60
2018-07-15T17:58:56.788Z,27.50
2018-07-15T18:01:30.541Z,27.40
2018-07-15T18:04:04.258Z,27.20
2018-07-15T18:06:38.069Z,27.10
2018-07-15T18:09:12.065Z,26.90
2018-07-15T18:11:45.787Z,26.90
2018-07-15T18:14:19.614Z,26.70
2018-07-15T18:16:53.412Z,26.60
2018-07-15T18:19:27.123Z,26.50
2018-07-15T18:22:01.950Z,26.40
2018-07-15T18:24:36.552Z,26.20
2018-07-15T18:27:10.192Z,26.10
2018-07-15T18:29:44.493Z,26.00
2018-07-15T18:32:18.570Z,25.80
2018-07-15T18:34:52.256Z,25.70
2018-07-15T18:37:26.146Z,25.70
2018-07-15T18:39:59.808Z,25.60
2018-07-15T18:42:33.533Z,25.50
2018-07-15T18:45:07.424Z,25.30
2018-07-15T18:47:41.200Z,25.10
2018-07-15T18:50:14.915Z,25.00
2018-07-15T18:52:48.659Z,24.70
2018-07-15T18:55:22.842Z,24.60
2018-07-15T18:57:56.717Z,24.50
2018-07-15T19:00:30.548Z,24.40
2018-07-15T19:03:04.451Z,24.30
2018-07-15T19:05:38.203Z,24.20
2018-07-15T19:08:12.009Z,24.10
2018-07-15T19:10:45.805Z,24.00
2018-07-15T19:13:19.677Z,23.90
2018-07-15T19:15:53.432Z,23.80
2018-07-15T19:18:27.950Z,23.70
2018-07-15T19:21:01.665Z,23.60
2018-07-15T19:23:35.468Z,23.50
2018-07-15T19:26:09.307Z,23.40
2018-07-15T19:28:43.073Z,23.30
2018-07-15T19:31:16.864Z,23.30
2018-07-15T19:33:50.741Z,23.20
2018-07-15T19:36:24.574Z,23.10
2018-07-15T19:38:58.300Z,23.00
2018-07-15T19:41:32.007Z,22.90
2018-07-15T19:44:08.107Z,22.80
2018-07-15T19:46:41.762Z,22.70
2018-07-15T19:49:15.430Z,22.60
2018-07-15T19:51:49.098Z,22.50
2018-07-15T19:54:22.824Z,22.50
2018-07-15T19:56:56.486Z,22.40
2018-07-15T19:59:30.303Z,22.30
2018-07-15T20:02:03.955Z,22.20
2018-07-15T20:04:37.724Z,22.10
2018-07-15T20:07:11.487Z,22.00
2018-07-15T20:09:45.478Z,22.00
2018-07-15T20:12:19.163Z,21.90
2018-07-15T20:14:52.882Z,21.70
2018-07-15T20:17:26.519Z,21.70
2018-07-15T20:20:00.265Z,21.60
2018-07-15T20:22:33.905Z,21.50
2018-07-15T20:25:08.274Z,21.50
2018-07-15T20:27:42.052Z,21.40
2018-07-15T20:30:15.822Z,21.30
2018-07-15T20:32:49.546Z,21.20
2018-07-15T20:35:23.153Z,21.20
2018-07-15T20:37:56.846Z,21.10
2018-07-15T20:40:30.521Z,21.00
2018-07-15T20:43:04.123Z,20.90
2018-07-15T20:45:37.751Z,20.80
2018-07-15T20:48:11.395Z,20.80
2018-07-15T20:50:45.088Z,20.70
2018-07-15T20:53:19.528Z,20.60
2018-07-15T20:55:55.447Z,20.60
2018-07-15T20:58:29.285Z,20.60
2018-07-15T21:01:03.040Z,20.50
2018-07-15T21:03:36.804Z,20.40
2018-07-15T21:06:13.430Z,20.40
2018-07-15T21:08:48.711Z,20.30
2018-07-15T21:11:23.180Z,20.30
2018-07-15T21:13:57.762Z,20.20
2018-07-15T21:16:31.501Z,20.10
2018-07-15T21:19:05.280Z,20.10
2018-07-15T21:21:38.996Z,20.00
2018-07-15T21:24:12.843Z,19.90
2018-07-15T21:26:50.615Z,19.90
2018-07-15T21:29:24.457Z,19.80
2018-07-15T21:31:59.254Z,19.70
2018-07-15T21:34:32.954Z,19.70
2018-07-15T21:37:08.460Z,19.60
2018-07-15T21:39:43.290Z,19.60
2018-07-15T21:42:16.970Z,19.50
2018-07-15T21:44:53.414Z,19.50
2018-07-15T21:47:28.444Z,19.40
2018-07-15T21:50:02.618Z,19.30
2018-07-15T21:52:38.083Z,19.30
2018-07-15T21:55:12.044Z,19.20
2018-07-15T21:57:45.847Z,19.10
2018-07-15T22:00:19.621Z,19.10
2018-07-15T22:02:54.841Z,18.90
2018-07-15T22:05:30.257Z,18.90
2018-07-15T22:08:25.796Z,18.80
2018-07-15T22:10:59.992Z,18.70
2018-07-15T22:13:33.849Z,18.70
2018-07-15T22:16:07.572Z,18.60
2018-07-15T22:18:41.258Z,18.60
2018-07-15T22:21:15.259Z,18.50
2018-07-15T22:23:49.115Z,18.50
2018-07-15T22:26:23.007Z,18.50
2018-07-15T22:28:56.845Z,18.40
2018-07-15T22:31:31.728Z,18.40
2018-07-15T22:34:05.647Z,18.30
2018-07-15T22:36:39.647Z,18.30
2018-07-15T22:39:14.622Z,18.30
2018-07-15T22:41:48.468Z,18.20
2018-07-15T22:44:23.396Z,18.20
2018-07-15T22:46:58.915Z,18.10
2018-07-15T22:49:43.723Z,18.00
2018-07-15T22:52:19.085Z,18.00
2018-07-15T22:55:07.875Z,18.00
2018-07-15T22:57:53.065Z,17.90
2018-07-15T23:00:27.621Z,17.80
2018-07-15T23:03:01.852Z,17.80
2018-07-15T23:06:00.084Z,17.80
2018-07-15T23:08:34.363Z,17.80
2018-07-15T23:11:08.212Z,17.70
2018-07-15T23:13:41.879Z,17.60
2018-07-15T23:16:15.823Z,17.60
2018-07-15T23:18:49.507Z,17.60
2018-07-15T23:21:23.340Z,17.50
2018-07-15T23:26:30.129Z,17.50
2018-07-15T23:29:03.815Z,17.40
2018-07-15T23:31:37.497Z,17.40
2018-07-15T23:34:11.200Z,17.40
2018-07-15T23:36:44.914Z,17.40
2018-07-15T23:39:18.617Z,17.30
2018-07-15T23:41:52.460Z,17.30
2018-07-15T23:44:26.162Z,17.20
2018-07-15T23:46:59.971Z,17.20
2018-07-15T23:49:33.740Z,17.20
2018-07-15T23:52:07.672Z,17.20
2018-07-15T23:54:41.302Z,17.10
2018-07-15T23:57:15.099Z,17.10
2018-07-15T23:59:48.874Z,17.10
